sensor_id;sensor_type;location;lat;lon;timestamp;P1;durP1;ratioP1;P2;durP2;ratioP2
59052;SDS011;44843;44.728;10.396;2024-01-30T00:01:41;20.30;;;10.15;;
59052;SDS011;44843;44.728;10.396;2024-01-30T00:04:06;24.00;;;10.82;;
59052;SDS011;44843;44.728;10.396;2024-01-30T00:06:32;30.02;;;11.20;;
59052;SDS011;44843;44.728;10.396;2024-01-30T00:08:57;22.73;;;10.45;;
59052;SDS011;44843;44.728;10.396;2024-01-30T00:11:23;20.77;;;10.98;;
59052;SDS011;44843;44.728;10.396;2024-01-30T00:13:50;20.92;;;10.38;;
59052;SDS011;44843;44.728;10.396;2024-01-30T00:16:20;29.20;;;11.75;;
59052;SDS011;44843;44.728;10.396;2024-01-30T00:18:51;26.52;;;11.52;;
59052;SDS011;44843;44.728;10.396;2024-01-30T00:21:18;24.33;;;11.38;;
59052;SDS011;44843;44.728;10.396;2024-01-30T00:23:43;24.60;;;11.30;;
59052;SDS011;44843;44.728;10.396;2024-01-30T00:26:09;23.50;;;11.25;;
59052;SDS011;44843;44.728;10.396;2024-01-30T00:28:35;19.70;;;11.18;;
59052;SDS011;44843;44.728;10.396;2024-01-30T00:31:00;26.63;;;11.80;;
59052;SDS011;44843;44.728;10.396;2024-01-30T00:33:26;25.10;;;12.18;;
59052;SDS011;44843;44.728;10.396;2024-01-30T00:35:51;27.60;;;12.10;;
59052;SDS011;44843;44.728;10.396;2024-01-30T00:38:16;24.65;;;11.57;;
59052;SDS011;44843;44.728;10.396;2024-01-30T00:40:42;33.30;;;13.95;;
59052;SDS011;44843;44.728;10.396;2024-01-30T00:43:08;29.70;;;14.52;;
59052;SDS011;44843;44.728;10.396;2024-01-30T00:45:33;29.67;;;14.27;;
59052;SDS011;44843;44.728;10.396;2024-01-30T00:47:58;31.50;;;14.85;;
59052;SDS011;44843;44.728;10.396;2024-01-30T00:50:24;31.55;;;13.40;;
59052;SDS011;44843;44.728;10.396;2024-01-30T00:52:49;26.35;;;12.80;;
59052;SDS011;44843;44.728;10.396;2024-01-30T00:55:15;32.83;;;12.95;;
59052;SDS011;44843;44.728;10.396;2024-01-30T00:57:40;30.60;;;13.38;;
59052;SDS011;44843;44.728;10.396;2024-01-30T01:00:06;30.50;;;14.40;;
59052;SDS011;44843;44.728;10.396;2024-01-30T01:02:34;28.95;;;14.35;;
59052;SDS011;44843;44.728;10.396;2024-01-30T01:05:00;30.90;;;14.35;;
59052;SDS011;44843;44.728;10.396;2024-01-30T01:07:26;44.92;;;15.43;;
59052;SDS011;44843;44.728;10.396;2024-01-30T01:09:51;39.42;;;16.55;;
59052;SDS011;44843;44.728;10.396;2024-01-30T01:12:16;31.98;;;15.18;;
59052;SDS011;44843;44.728;10.396;2024-01-30T01:14:42;30.75;;;14.13;;
59052;SDS011;44843;44.728;10.396;2024-01-30T01:17:07;34.50;;;15.52;;
59052;SDS011;44843;44.728;10.396;2024-01-30T01:19:32;35.33;;;15.57;;
59052;SDS011;44843;44.728;10.396;2024-01-30T01:21:58;26.60;;;13.05;;
59052;SDS011;44843;44.728;10.396;2024-01-30T01:24:23;27.65;;;14.00;;
59052;SDS011;44843;44.728;10.396;2024-01-30T01:26:49;29.63;;;13.60;;
59052;SDS011;44843;44.728;10.396;2024-01-30T01:29:14;23.58;;;12.88;;
59052;SDS011;44843;44.728;10.396;2024-01-30T01:31:40;26.42;;;13.13;;
59052;SDS011;44843;44.728;10.396;2024-01-30T01:34:12;31.55;;;15.18;;
59052;SDS011;44843;44.728;10.396;2024-01-30T01:36:38;31.50;;;14.07;;
59052;SDS011;44843;44.728;10.396;2024-01-30T01:39:04;27.20;;;12.95;;
59052;SDS011;44843;44.728;10.396;2024-01-30T01:41:32;33.13;;;14.80;;
59052;SDS011;44843;44.728;10.396;2024-01-30T01:43:58;25.40;;;13.45;;
59052;SDS011;44843;44.728;10.396;2024-01-30T01:46:26;27.75;;;13.30;;
59052;SDS011;44843;44.728;10.396;2024-01-30T01:48:52;27.73;;;13.48;;
59052;SDS011;44843;44.728;10.396;2024-01-30T01:51:18;24.92;;;12.98;;
59052;SDS011;44843;44.728;10.396;2024-01-30T01:53:44;33.92;;;14.80;;
59052;SDS011;44843;44.728;10.396;2024-01-30T01:56:10;29.10;;;12.95;;
59052;SDS011;44843;44.728;10.396;2024-01-30T01:58:35;28.38;;;13.85;;
59052;SDS011;44843;44.728;10.396;2024-01-30T02:01:02;30.63;;;14.02;;
59052;SDS011;44843;44.728;10.396;2024-01-30T02:03:30;28.48;;;14.82;;
59052;SDS011;44843;44.728;10.396;2024-01-30T02:05:55;26.58;;;13.32;;
59052;SDS011;44843;44.728;10.396;2024-01-30T02:08:21;27.23;;;15.18;;
59052;SDS011;44843;44.728;10.396;2024-01-30T02:10:48;26.88;;;14.43;;
59052;SDS011;44843;44.728;10.396;2024-01-30T02:13:13;25.60;;;14.45;;
59052;SDS011;44843;44.728;10.396;2024-01-30T02:15:39;27.80;;;14.77;;
59052;SDS011;44843;44.728;10.396;2024-01-30T02:18:04;24.17;;;12.20;;
59052;SDS011;44843;44.728;10.396;2024-01-30T02:20:30;30.95;;;12.93;;
59052;SDS011;44843;44.728;10.396;2024-01-30T02:22:56;23.13;;;12.85;;
59052;SDS011;44843;44.728;10.396;2024-01-30T02:25:33;27.05;;;13.35;;
59052;SDS011;44843;44.728;10.396;2024-01-30T02:28:01;19.27;;;11.55;;
59052;SDS011;44843;44.728;10.396;2024-01-30T02:30:26;26.10;;;12.73;;
59052;SDS011;44843;44.728;10.396;2024-01-30T02:32:52;25.25;;;12.93;;
59052;SDS011;44843;44.728;10.396;2024-01-30T02:35:17;23.65;;;12.15;;
59052;SDS011;44843;44.728;10.396;2024-01-30T02:37:42;23.55;;;12.70;;
59052;SDS011;44843;44.728;10.396;2024-01-30T02:40:08;20.63;;;12.40;;
59052;SDS011;44843;44.728;10.396;2024-01-30T02:42:33;21.40;;;12.38;;
59052;SDS011;44843;44.728;10.396;2024-01-30T02:44:58;18.30;;;11.43;;
59052;SDS011;44843;44.728;10.396;2024-01-30T02:47:24;19.38;;;12.00;;
59052;SDS011;44843;44.728;10.396;2024-01-30T02:49:49;22.00;;;13.15;;
59052;SDS011;44843;44.728;10.396;2024-01-30T02:52:14;21.25;;;11.57;;
59052;SDS011;44843;44.728;10.396;2024-01-30T02:54:40;22.10;;;12.55;;
59052;SDS011;44843;44.728;10.396;2024-01-30T02:57:05;27.15;;;13.32;;
59052;SDS011;44843;44.728;10.396;2024-01-30T02:59:30;21.58;;;12.55;;
59052;SDS011;44843;44.728;10.396;2024-01-30T03:01:58;21.98;;;13.48;;
59052;SDS011;44843;44.728;10.396;2024-01-30T03:04:24;22.00;;;12.38;;
59052;SDS011;44843;44.728;10.396;2024-01-30T03:06:49;24.10;;;13.07;;
59052;SDS011;44843;44.728;10.396;2024-01-30T03:09:17;24.08;;;12.15;;
59052;SDS011;44843;44.728;10.396;2024-01-30T03:11:43;21.48;;;11.73;;
59052;SDS011;44843;44.728;10.396;2024-01-30T03:14:08;20.27;;;12.57;;
59052;SDS011;44843;44.728;10.396;2024-01-30T03:16:36;26.45;;;13.13;;
59052;SDS011;44843;44.728;10.396;2024-01-30T03:19:02;23.25;;;11.98;;
59052;SDS011;44843;44.728;10.396;2024-01-30T03:21:28;22.05;;;11.50;;
59052;SDS011;44843;44.728;10.396;2024-01-30T03:23:54;22.30;;;11.45;;
59052;SDS011;44843;44.728;10.396;2024-01-30T03:26:20;23.45;;;12.48;;
59052;SDS011;44843;44.728;10.396;2024-01-30T03:28:46;21.65;;;11.25;;
59052;SDS011;44843;44.728;10.396;2024-01-30T03:31:24;24.65;;;11.15;;
59052;SDS011;44843;44.728;10.396;2024-01-30T03:33:49;17.98;;;10.05;;
59052;SDS011;44843;44.728;10.396;2024-01-30T03:36:15;19.02;;;11.07;;
59052;SDS011;44843;44.728;10.396;2024-01-30T03:38:41;22.40;;;11.02;;
59052;SDS011;44843;44.728;10.396;2024-01-30T03:41:07;22.15;;;11.00;;
59052;SDS011;44843;44.728;10.396;2024-01-30T03:43:46;17.65;;;10.35;;
59052;SDS011;44843;44.728;10.396;2024-01-30T03:46:25;18.92;;;10.13;;
59052;SDS011;44843;44.728;10.396;2024-01-30T03:48:52;21.05;;;10.15;;
59052;SDS011;44843;44.728;10.396;2024-01-30T03:51:18;19.48;;;9.85;;
59052;SDS011;44843;44.728;10.396;2024-01-30T03:53:43;12.63;;;7.90;;
59052;SDS011;44843;44.728;10.396;2024-01-30T03:56:09;23.88;;;9.05;;
59052;SDS011;44843;44.728;10.396;2024-01-30T03:58:34;15.55;;;8.80;;
59052;SDS011;44843;44.728;10.396;2024-01-30T04:01:00;18.73;;;9.15;;
59052;SDS011;44843;44.728;10.396;2024-01-30T04:03:25;19.33;;;9.02;;
59052;SDS011;44843;44.728;10.396;2024-01-30T04:05:53;18.33;;;8.23;;
59052;SDS011;44843;44.728;10.396;2024-01-30T04:08:19;20.30;;;8.82;;
59052;SDS011;44843;44.728;10.396;2024-01-30T04:10:45;15.52;;;8.93;;
59052;SDS011;44843;44.728;10.396;2024-01-30T04:13:11;19.10;;;9.60;;
59052;SDS011;44843;44.728;10.396;2024-01-30T04:15:36;16.80;;;9.05;;
59052;SDS011;44843;44.728;10.396;2024-01-30T04:18:02;21.17;;;9.07;;
59052;SDS011;44843;44.728;10.396;2024-01-30T04:20:27;18.05;;;9.00;;
59052;SDS011;44843;44.728;10.396;2024-01-30T04:22:54;18.67;;;9.40;;
59052;SDS011;44843;44.728;10.396;2024-01-30T04:25:19;15.52;;;8.70;;
59052;SDS011;44843;44.728;10.396;2024-01-30T04:27:45;17.75;;;9.73;;
59052;SDS011;44843;44.728;10.396;2024-01-30T04:30:10;18.05;;;9.32;;
59052;SDS011;44843;44.728;10.396;2024-01-30T04:32:36;16.20;;;8.70;;
59052;SDS011;44843;44.728;10.396;2024-01-30T04:35:01;19.17;;;9.30;;
59052;SDS011;44843;44.728;10.396;2024-01-30T04:37:27;17.35;;;8.75;;
59052;SDS011;44843;44.728;10.396;2024-01-30T04:39:52;19.77;;;10.18;;
59052;SDS011;44843;44.728;10.396;2024-01-30T04:42:18;17.60;;;9.55;;
59052;SDS011;44843;44.728;10.396;2024-01-30T04:44:43;17.75;;;9.25;;
59052;SDS011;44843;44.728;10.396;2024-01-30T04:47:10;17.80;;;9.43;;
59052;SDS011;44843;44.728;10.396;2024-01-30T04:49:37;15.80;;;9.05;;
59052;SDS011;44843;44.728;10.396;2024-01-30T04:52:04;17.27;;;9.18;;
59052;SDS011;44843;44.728;10.396;2024-01-30T04:54:30;16.85;;;9.25;;
59052;SDS011;44843;44.728;10.396;2024-01-30T04:56:56;20.95;;;9.52;;
59052;SDS011;44843;44.728;10.396;2024-01-30T04:59:21;19.23;;;9.48;;
59052;SDS011;44843;44.728;10.396;2024-01-30T05:01:46;15.57;;;9.55;;
59052;SDS011;44843;44.728;10.396;2024-01-30T05:04:12;15.93;;;8.90;;
59052;SDS011;44843;44.728;10.396;2024-01-30T05:06:37;14.98;;;9.32;;
59052;SDS011;44843;44.728;10.396;2024-01-30T05:09:03;18.60;;;9.38;;
59052;SDS011;44843;44.728;10.396;2024-01-30T05:11:31;16.17;;;8.48;;
59052;SDS011;44843;44.728;10.396;2024-01-30T05:13:56;16.67;;;9.93;;
59052;SDS011;44843;44.728;10.396;2024-01-30T05:16:22;13.75;;;8.63;;
59052;SDS011;44843;44.728;10.396;2024-01-30T05:18:47;17.23;;;9.38;;
59052;SDS011;44843;44.728;10.396;2024-01-30T05:21:12;16.38;;;9.32;;
59052;SDS011;44843;44.728;10.396;2024-01-30T05:23:38;15.30;;;8.45;;
59052;SDS011;44843;44.728;10.396;2024-01-30T05:26:04;15.90;;;8.55;;
59052;SDS011;44843;44.728;10.396;2024-01-30T05:28:29;14.38;;;7.57;;
59052;SDS011;44843;44.728;10.396;2024-01-30T05:30:55;13.20;;;7.82;;
59052;SDS011;44843;44.728;10.396;2024-01-30T05:33:21;13.63;;;8.63;;
59052;SDS011;44843;44.728;10.396;2024-01-30T05:35:46;14.50;;;7.85;;
59052;SDS011;44843;44.728;10.396;2024-01-30T05:38:12;13.95;;;8.65;;
59052;SDS011;44843;44.728;10.396;2024-01-30T05:40:37;15.00;;;9.13;;
59052;SDS011;44843;44.728;10.396;2024-01-30T05:43:03;20.58;;;9.15;;
59052;SDS011;44843;44.728;10.396;2024-01-30T05:45:28;16.05;;;7.90;;
59052;SDS011;44843;44.728;10.396;2024-01-30T05:47:54;14.60;;;8.40;;
59052;SDS011;44843;44.728;10.396;2024-01-30T05:50:19;12.77;;;8.20;;
59052;SDS011;44843;44.728;10.396;2024-01-30T05:52:45;16.13;;;8.80;;
59052;SDS011;44843;44.728;10.396;2024-01-30T05:55:11;17.08;;;8.98;;
59052;SDS011;44843;44.728;10.396;2024-01-30T05:57:37;15.15;;;9.18;;
59052;SDS011;44843;44.728;10.396;2024-01-30T06:00:03;18.63;;;9.13;;
59052;SDS011;44843;44.728;10.396;2024-01-30T06:02:30;14.45;;;8.57;;
59052;SDS011;44843;44.728;10.396;2024-01-30T06:04:55;17.08;;;9.95;;
59052;SDS011;44843;44.728;10.396;2024-01-30T06:07:21;19.73;;;9.80;;
59052;SDS011;44843;44.728;10.396;2024-01-30T06:09:47;17.58;;;9.80;;
59052;SDS011;44843;44.728;10.396;2024-01-30T06:12:12;17.23;;;9.20;;
59052;SDS011;44843;44.728;10.396;2024-01-30T06:14:38;19.50;;;9.60;;
59052;SDS011;44843;44.728;10.396;2024-01-30T06:17:03;14.18;;;9.15;;
59052;SDS011;44843;44.728;10.396;2024-01-30T06:19:30;16.80;;;8.18;;
59052;SDS011;44843;44.728;10.396;2024-01-30T06:21:55;19.83;;;9.63;;
59052;SDS011;44843;44.728;10.396;2024-01-30T06:24:20;14.68;;;8.48;;
59052;SDS011;44843;44.728;10.396;2024-01-30T06:26:46;18.63;;;8.25;;
59052;SDS011;44843;44.728;10.396;2024-01-30T06:29:11;15.38;;;9.07;;
59052;SDS011;44843;44.728;10.396;2024-01-30T06:31:39;15.65;;;8.73;;
59052;SDS011;44843;44.728;10.396;2024-01-30T06:34:11;13.93;;;8.95;;
59052;SDS011;44843;44.728;10.396;2024-01-30T06:36:37;17.95;;;9.93;;
59052;SDS011;44843;44.728;10.396;2024-01-30T06:39:03;14.48;;;9.38;;
59052;SDS011;44843;44.728;10.396;2024-01-30T06:41:29;20.17;;;9.52;;
59052;SDS011;44843;44.728;10.396;2024-01-30T06:43:55;18.67;;;8.63;;
59052;SDS011;44843;44.728;10.396;2024-01-30T06:46:21;17.95;;;9.45;;
59052;SDS011;44843;44.728;10.396;2024-01-30T06:48:46;17.95;;;8.77;;
59052;SDS011;44843;44.728;10.396;2024-01-30T06:51:11;17.17;;;10.38;;
59052;SDS011;44843;44.728;10.396;2024-01-30T06:53:37;18.95;;;10.60;;
59052;SDS011;44843;44.728;10.396;2024-01-30T06:56:03;15.98;;;9.23;;
59052;SDS011;44843;44.728;10.396;2024-01-30T06:58:28;19.10;;;9.77;;
59052;SDS011;44843;44.728;10.396;2024-01-30T07:00:54;16.02;;;9.23;;
59052;SDS011;44843;44.728;10.396;2024-01-30T07:03:19;17.83;;;9.65;;
59052;SDS011;44843;44.728;10.396;2024-01-30T07:05:45;17.08;;;9.52;;
59052;SDS011;44843;44.728;10.396;2024-01-30T07:08:10;17.30;;;9.52;;
59052;SDS011;44843;44.728;10.396;2024-01-30T07:10:36;15.52;;;8.70;;
59052;SDS011;44843;44.728;10.396;2024-01-30T07:13:01;13.85;;;9.13;;
59052;SDS011;44843;44.728;10.396;2024-01-30T07:15:27;16.63;;;9.13;;
59052;SDS011;44843;44.728;10.396;2024-01-30T07:17:52;17.15;;;9.10;;
59052;SDS011;44843;44.728;10.396;2024-01-30T07:20:18;17.48;;;8.65;;
59052;SDS011;44843;44.728;10.396;2024-01-30T07:22:45;17.42;;;9.73;;
59052;SDS011;44843;44.728;10.396;2024-01-30T07:25:10;14.00;;;9.57;;
59052;SDS011;44843;44.728;10.396;2024-01-30T07:27:36;16.85;;;9.45;;
59052;SDS011;44843;44.728;10.396;2024-01-30T07:30:01;14.82;;;8.85;;
59052;SDS011;44843;44.728;10.396;2024-01-30T07:32:27;22.60;;;10.18;;
59052;SDS011;44843;44.728;10.396;2024-01-30T07:34:53;15.02;;;9.20;;
59052;SDS011;44843;44.728;10.396;2024-01-30T07:37:18;20.38;;;10.35;;
59052;SDS011;44843;44.728;10.396;2024-01-30T07:39:44;16.30;;;9.48;;
59052;SDS011;44843;44.728;10.396;2024-01-30T07:42:09;15.55;;;9.52;;
59052;SDS011;44843;44.728;10.396;2024-01-30T07:44:35;16.63;;;9.68;;
59052;SDS011;44843;44.728;10.396;2024-01-30T07:47:01;15.98;;;9.02;;
59052;SDS011;44843;44.728;10.396;2024-01-30T07:49:27;15.80;;;9.15;;
59052;SDS011;44843;44.728;10.396;2024-01-30T07:51:53;17.90;;;9.52;;
59052;SDS011;44843;44.728;10.396;2024-01-30T07:54:18;16.55;;;9.23;;
59052;SDS011;44843;44.728;10.396;2024-01-30T07:56:44;13.88;;;9.82;;
59052;SDS011;44843;44.728;10.396;2024-01-30T07:59:09;15.13;;;10.45;;
59052;SDS011;44843;44.728;10.396;2024-01-30T08:01:36;21.40;;;11.40;;
59052;SDS011;44843;44.728;10.396;2024-01-30T08:04:01;17.30;;;10.45;;
59052;SDS011;44843;44.728;10.396;2024-01-30T08:06:27;19.35;;;9.88;;
59052;SDS011;44843;44.728;10.396;2024-01-30T08:08:52;18.27;;;9.95;;
59052;SDS011;44843;44.728;10.396;2024-01-30T08:11:19;16.88;;;8.50;;
59052;SDS011;44843;44.728;10.396;2024-01-30T08:13:50;12.60;;;8.40;;
59052;SDS011;44843;44.728;10.396;2024-01-30T08:16:15;17.90;;;8.85;;
59052;SDS011;44843;44.728;10.396;2024-01-30T08:18:41;14.32;;;9.35;;
59052;SDS011;44843;44.728;10.396;2024-01-30T08:21:06;15.88;;;9.13;;
59052;SDS011;44843;44.728;10.396;2024-01-30T08:23:32;17.10;;;9.00;;
59052;SDS011;44843;44.728;10.396;2024-01-30T08:25:57;16.02;;;8.60;;
59052;SDS011;44843;44.728;10.396;2024-01-30T08:28:23;15.63;;;9.20;;
59052;SDS011;44843;44.728;10.396;2024-01-30T08:30:48;19.40;;;11.30;;
59052;SDS011;44843;44.728;10.396;2024-01-30T08:33:13;15.75;;;9.68;;
59052;SDS011;44843;44.728;10.396;2024-01-30T08:35:39;20.23;;;10.27;;
59052;SDS011;44843;44.728;10.396;2024-01-30T08:38:04;14.10;;;8.85;;
59052;SDS011;44843;44.728;10.396;2024-01-30T08:40:29;20.55;;;9.90;;
59052;SDS011;44843;44.728;10.396;2024-01-30T08:42:55;16.35;;;9.82;;
59052;SDS011;44843;44.728;10.396;2024-01-30T08:45:21;19.48;;;10.07;;
59052;SDS011;44843;44.728;10.396;2024-01-30T08:47:46;20.38;;;10.30;;
59052;SDS011;44843;44.728;10.396;2024-01-30T08:50:12;13.98;;;8.10;;
59052;SDS011;44843;44.728;10.396;2024-01-30T08:52:37;14.95;;;9.10;;
59052;SDS011;44843;44.728;10.396;2024-01-30T08:55:02;17.83;;;9.38;;
59052;SDS011;44843;44.728;10.396;2024-01-30T08:57:29;18.88;;;10.07;;
59052;SDS011;44843;44.728;10.396;2024-01-30T08:59:55;18.77;;;9.70;;
59052;SDS011;44843;44.728;10.396;2024-01-30T09:02:21;17.80;;;9.82;;
59052;SDS011;44843;44.728;10.396;2024-01-30T09:04:46;17.55;;;9.40;;
59052;SDS011;44843;44.728;10.396;2024-01-30T09:07:12;15.88;;;9.38;;
59052;SDS011;44843;44.728;10.396;2024-01-30T09:09:38;17.58;;;9.32;;
59052;SDS011;44843;44.728;10.396;2024-01-30T09:12:06;14.98;;;9.18;;
59052;SDS011;44843;44.728;10.396;2024-01-30T09:14:34;16.80;;;9.63;;
59052;SDS011;44843;44.728;10.396;2024-01-30T09:17:00;16.65;;;10.02;;
59052;SDS011;44843;44.728;10.396;2024-01-30T09:19:25;18.73;;;9.73;;
59052;SDS011;44843;44.728;10.396;2024-01-30T09:21:50;19.48;;;9.20;;
59052;SDS011;44843;44.728;10.396;2024-01-30T09:24:16;16.17;;;8.75;;
59052;SDS011;44843;44.728;10.396;2024-01-30T09:26:41;16.55;;;9.25;;
59052;SDS011;44843;44.728;10.396;2024-01-30T09:29:06;14.48;;;8.40;;
59052;SDS011;44843;44.728;10.396;2024-01-30T09:31:32;16.75;;;9.70;;
59052;SDS011;44843;44.728;10.396;2024-01-30T09:33:57;18.88;;;10.05;;
59052;SDS011;44843;44.728;10.396;2024-01-30T09:36:23;18.25;;;10.93;;
59052;SDS011;44843;44.728;10.396;2024-01-30T09:38:48;20.63;;;11.18;;
59052;SDS011;44843;44.728;10.396;2024-01-30T09:41:14;14.63;;;9.38;;
59052;SDS011;44843;44.728;10.396;2024-01-30T09:43:40;17.80;;;10.20;;
59052;SDS011;44843;44.728;10.396;2024-01-30T09:46:12;15.82;;;8.18;;
59052;SDS011;44843;44.728;10.396;2024-01-30T09:48:40;19.50;;;10.00;;
59052;SDS011;44843;44.728;10.396;2024-01-30T09:51:07;15.90;;;9.63;;
59052;SDS011;44843;44.728;10.396;2024-01-30T09:53:34;16.33;;;10.60;;
59052;SDS011;44843;44.728;10.396;2024-01-30T09:56:02;18.00;;;8.95;;
59052;SDS011;44843;44.728;10.396;2024-01-30T09:58:28;17.83;;;10.43;;
59052;SDS011;44843;44.728;10.396;2024-01-30T10:00:53;20.48;;;9.65;;
59052;SDS011;44843;44.728;10.396;2024-01-30T10:03:19;18.02;;;10.20;;
59052;SDS011;44843;44.728;10.396;2024-01-30T10:05:46;16.73;;;9.98;;
59052;SDS011;44843;44.728;10.396;2024-01-30T10:08:17;23.35;;;11.10;;
59052;SDS011;44843;44.728;10.396;2024-01-30T10:10:45;18.48;;;9.80;;
59052;SDS011;44843;44.728;10.396;2024-01-30T10:13:12;17.65;;;10.30;;
59052;SDS011;44843;44.728;10.396;2024-01-30T10:15:37;21.98;;;9.85;;
59052;SDS011;44843;44.728;10.396;2024-01-30T10:18:04;19.55;;;9.40;;
59052;SDS011;44843;44.728;10.396;2024-01-30T10:20:31;19.17;;;10.38;;
59052;SDS011;44843;44.728;10.396;2024-01-30T10:22:57;15.93;;;9.07;;
59052;SDS011;44843;44.728;10.396;2024-01-30T10:25:25;20.70;;;10.65;;
59052;SDS011;44843;44.728;10.396;2024-01-30T10:27:54;20.02;;;9.55;;
59052;SDS011;44843;44.728;10.396;2024-01-30T10:30:20;19.50;;;11.02;;
59052;SDS011;44843;44.728;10.396;2024-01-30T10:32:46;23.63;;;11.32;;
59052;SDS011;44843;44.728;10.396;2024-01-30T10:35:12;20.85;;;10.65;;
59052;SDS011;44843;44.728;10.396;2024-01-30T10:37:37;18.75;;;11.18;;
59052;SDS011;44843;44.728;10.396;2024-01-30T10:40:03;20.33;;;10.90;;
59052;SDS011;44843;44.728;10.396;2024-01-30T10:42:31;20.48;;;11.18;;
59052;SDS011;44843;44.728;10.396;2024-01-30T10:45:02;19.92;;;11.50;;
59052;SDS011;44843;44.728;10.396;2024-01-30T10:47:47;25.48;;;12.02;;
59052;SDS011;44843;44.728;10.396;2024-01-30T10:50:14;21.83;;;11.55;;
59052;SDS011;44843;44.728;10.396;2024-01-30T10:52:40;27.63;;;12.82;;
59052;SDS011;44843;44.728;10.396;2024-01-30T10:55:09;24.95;;;12.50;;
59052;SDS011;44843;44.728;10.396;2024-01-30T10:57:35;25.88;;;13.98;;
59052;SDS011;44843;44.728;10.396;2024-01-30T11:00:02;32.33;;;14.05;;
59052;SDS011;44843;44.728;10.396;2024-01-30T11:02:41;31.63;;;15.20;;
59052;SDS011;44843;44.728;10.396;2024-01-30T11:05:09;36.15;;;15.85;;
59052;SDS011;44843;44.728;10.396;2024-01-30T11:07:34;25.90;;;13.73;;
59052;SDS011;44843;44.728;10.396;2024-01-30T11:10:01;27.05;;;13.63;;
59052;SDS011;44843;44.728;10.396;2024-01-30T11:12:29;27.27;;;13.55;;
59052;SDS011;44843;44.728;10.396;2024-01-30T11:15:01;32.58;;;14.30;;
59052;SDS011;44843;44.728;10.396;2024-01-30T11:20:21;28.67;;;15.15;;
59052;SDS011;44843;44.728;10.396;2024-01-30T11:22:58;31.95;;;15.57;;
59052;SDS011;44843;44.728;10.396;2024-01-30T11:25:24;35.13;;;14.88;;
59052;SDS011;44843;44.728;10.396;2024-01-30T11:27:54;39.40;;;16.83;;
59052;SDS011;44843;44.728;10.396;2024-01-30T11:30:21;36.35;;;15.80;;
59052;SDS011;44843;44.728;10.396;2024-01-30T11:32:57;34.53;;;15.93;;
59052;SDS011;44843;44.728;10.396;2024-01-30T11:35:24;32.90;;;16.58;;
59052;SDS011;44843;44.728;10.396;2024-01-30T11:37:49;36.08;;;16.92;;
59052;SDS011;44843;44.728;10.396;2024-01-30T11:40:15;32.38;;;16.40;;
59052;SDS011;44843;44.728;10.396;2024-01-30T11:42:41;38.50;;;17.52;;
59052;SDS011;44843;44.728;10.396;2024-01-30T11:45:08;38.42;;;17.92;;
59052;SDS011;44843;44.728;10.396;2024-01-30T11:47:34;37.25;;;17.00;;
59052;SDS011;44843;44.728;10.396;2024-01-30T11:50:02;35.78;;;17.20;;
59052;SDS011;44843;44.728;10.396;2024-01-30T11:52:28;48.53;;;19.20;;
59052;SDS011;44843;44.728;10.396;2024-01-30T11:54:54;35.47;;;16.88;;
59052;SDS011;44843;44.728;10.396;2024-01-30T11:57:19;39.67;;;18.50;;
59052;SDS011;44843;44.728;10.396;2024-01-30T11:59:45;32.97;;;15.45;;
59052;SDS011;44843;44.728;10.396;2024-01-30T12:02:15;37.15;;;18.92;;
59052;SDS011;44843;44.728;10.396;2024-01-30T12:04:42;52.13;;;19.85;;
59052;SDS011;44843;44.728;10.396;2024-01-30T12:07:07;41.20;;;19.23;;
59052;SDS011;44843;44.728;10.396;2024-01-30T12:09:33;36.08;;;18.63;;
59052;SDS011;44843;44.728;10.396;2024-01-30T12:11:58;38.35;;;18.85;;
59052;SDS011;44843;44.728;10.396;2024-01-30T12:14:24;38.88;;;18.20;;
59052;SDS011;44843;44.728;10.396;2024-01-30T12:16:51;33.50;;;17.50;;
59052;SDS011;44843;44.728;10.396;2024-01-30T12:19:23;46.35;;;19.02;;
59052;SDS011;44843;44.728;10.396;2024-01-30T12:21:57;33.63;;;16.73;;
59052;SDS011;44843;44.728;10.396;2024-01-30T12:24:27;40.40;;;18.25;;
59052;SDS011;44843;44.728;10.396;2024-01-30T12:26:56;39.38;;;17.77;;
59052;SDS011;44843;44.728;10.396;2024-01-30T12:29:22;36.55;;;18.73;;
59052;SDS011;44843;44.728;10.396;2024-01-30T12:31:48;43.13;;;17.73;;
59052;SDS011;44843;44.728;10.396;2024-01-30T12:34:13;36.78;;;18.10;;
59052;SDS011;44843;44.728;10.396;2024-01-30T12:36:40;37.67;;;17.73;;
59052;SDS011;44843;44.728;10.396;2024-01-30T12:39:06;42.30;;;19.52;;
59052;SDS011;44843;44.728;10.396;2024-01-30T12:41:31;37.08;;;19.35;;
59052;SDS011;44843;44.728;10.396;2024-01-30T12:43:57;35.10;;;18.33;;
59052;SDS011;44843;44.728;10.396;2024-01-30T12:46:32;35.92;;;17.65;;
59052;SDS011;44843;44.728;10.396;2024-01-30T12:48:59;33.78;;;17.33;;
59052;SDS011;44843;44.728;10.396;2024-01-30T12:51:24;33.72;;;17.17;;
59052;SDS011;44843;44.728;10.396;2024-01-30T12:53:50;36.33;;;17.60;;
59052;SDS011;44843;44.728;10.396;2024-01-30T12:56:15;34.13;;;16.90;;
59052;SDS011;44843;44.728;10.396;2024-01-30T12:58:41;34.30;;;16.20;;
59052;SDS011;44843;44.728;10.396;2024-01-30T13:01:08;34.70;;;18.00;;
59052;SDS011;44843;44.728;10.396;2024-01-30T13:03:33;35.50;;;17.17;;
59052;SDS011;44843;44.728;10.396;2024-01-30T13:05:59;32.22;;;16.15;;
59052;SDS011;44843;44.728;10.396;2024-01-30T13:08:24;33.85;;;16.80;;
59052;SDS011;44843;44.728;10.396;2024-01-30T13:10:49;32.05;;;15.55;;
59052;SDS011;44843;44.728;10.396;2024-01-30T13:13:15;38.65;;;17.30;;
59052;SDS011;44843;44.728;10.396;2024-01-30T13:15:40;33.17;;;16.13;;
59052;SDS011;44843;44.728;10.396;2024-01-30T13:18:06;28.77;;;15.15;;
59052;SDS011;44843;44.728;10.396;2024-01-30T13:20:31;31.20;;;16.90;;
59052;SDS011;44843;44.728;10.396;2024-01-30T13:22:57;33.03;;;15.45;;
59052;SDS011;44843;44.728;10.396;2024-01-30T13:25:22;35.00;;;16.63;;
59052;SDS011;44843;44.728;10.396;2024-01-30T13:27:47;39.40;;;18.05;;
59052;SDS011;44843;44.728;10.396;2024-01-30T13:30:13;40.90;;;18.65;;
59052;SDS011;44843;44.728;10.396;2024-01-30T13:32:39;37.97;;;17.58;;
59052;SDS011;44843;44.728;10.396;2024-01-30T13:35:06;36.13;;;17.45;;
59052;SDS011;44843;44.728;10.396;2024-01-30T13:37:32;29.92;;;16.45;;
59052;SDS011;44843;44.728;10.396;2024-01-30T13:39:57;41.67;;;18.13;;
59052;SDS011;44843;44.728;10.396;2024-01-30T13:42:23;37.22;;;16.65;;
59052;SDS011;44843;44.728;10.396;2024-01-30T13:44:48;39.38;;;17.00;;
59052;SDS011;44843;44.728;10.396;2024-01-30T13:47:14;39.88;;;18.83;;
59052;SDS011;44843;44.728;10.396;2024-01-30T13:49:39;39.50;;;17.67;;
59052;SDS011;44843;44.728;10.396;2024-01-30T13:52:05;41.72;;;17.83;;
59052;SDS011;44843;44.728;10.396;2024-01-30T13:54:30;38.50;;;18.00;;
59052;SDS011;44843;44.728;10.396;2024-01-30T13:56:56;45.05;;;19.55;;
59052;SDS011;44843;44.728;10.396;2024-01-30T13:59:22;33.20;;;17.35;;
59052;SDS011;44843;44.728;10.396;2024-01-30T14:01:50;40.08;;;18.60;;
59052;SDS011;44843;44.728;10.396;2024-01-30T14:04:16;44.08;;;19.83;;
59052;SDS011;44843;44.728;10.396;2024-01-30T14:06:41;36.60;;;18.67;;
59052;SDS011;44843;44.728;10.396;2024-01-30T14:09:07;40.08;;;19.08;;
59052;SDS011;44843;44.728;10.396;2024-01-30T14:11:32;36.72;;;18.05;;